createdAt,value
2018-01-27T00:02:01.215Z,86.58
2018-01-27T00:04:27.826Z,86.50
2018-01-27T00:06:54.533Z,86.70
2018-01-27T00:09:21.174Z,86.74
2018-01-27T00:11:47.745Z,86.62
2018-01-27T00:14:14.400Z,86.39
2018-01-27T00:16:41.741Z,86.55
2018-01-27T00:19:08.321Z,86.73
2018-01-27T00:21:34.914Z,86.67
2018-01-27T00:24:01.646Z,86.93
2018-01-27T00:26:29.766Z,86.89
2018-01-27T00:28:56.367Z,86.85
2018-01-27T00:31:23.746Z,87.13
2018-01-27T00:33:50.360Z,87.22
2018-01-27T00:36:17.744Z,87.40
2018-01-27T00:38:44.314Z,87.53
2018-01-27T00:41:10.943Z,87.58
2018-01-27T00:43:37.614Z,87.69
2018-01-27T00:46:04.227Z,87.53
2018-01-27T00:48:31.933Z,87.27
2018-01-27T00:50:59.247Z,87.12
2018-01-27T00:53:25.869Z,87.36
2018-01-27T00:55:52.456Z,87.00
2018-01-27T00:58:19.795Z,87.26
2018-01-27T01:00:47.131Z,87.26
2018-01-27T01:03:13.750Z,87.21
2018-01-27T01:05:40.390Z,87.45
2018-01-27T01:08:07.014Z,87.12
2018-01-27T01:10:33.632Z,87.34
2018-01-27T01:13:00.258Z,87.32
2018-01-27T01:15:27.546Z,87.43
2018-01-27T01:17:54.163Z,87.41
2018-01-27T01:20:20.738Z,87.39
2018-01-27T01:22:47.346Z,87.58
2018-01-27T01:25:13.962Z,87.61
2018-01-27T01:27:40.547Z,87.32
2018-01-27T01:30:07.296Z,87.28
2018-01-27T01:32:33.874Z,87.22
2018-01-27T01:35:00.473Z,87.37
2018-01-27T01:37:27.051Z,87.39
2018-01-27T01:39:53.730Z,87.18
2018-01-27T01:42:26.266Z,86.96
2018-01-27T01:44:52.846Z,86.94
2018-01-27T01:47:19.430Z,86.71
2018-01-27T01:49:46.022Z,86.90
2018-01-27T01:52:13.420Z,86.74
2018-01-27T01:54:40.781Z,86.61
2018-01-27T01:57:07.394Z,86.80
2018-01-27T01:59:34.746Z,87.07
2018-01-27T02:02:01.314Z,87.16
2018-01-27T02:04:27.983Z,86.91
2018-01-27T02:06:54.673Z,86.75
2018-01-27T02:09:21.443Z,86.97
2018-01-27T02:11:48.062Z,87.17
2018-01-27T02:14:14.634Z,87.13
2018-01-27T02:16:41.220Z,87.02
2018-01-27T02:19:07.798Z,86.63
2018-01-27T02:21:34.418Z,86.39
2018-01-27T02:24:01.112Z,86.06
2018-01-27T02:26:27.759Z,86.50
2018-01-27T02:28:54.378Z,86.94
2018-01-27T02:31:21.002Z,86.77
2018-01-27T02:33:47.581Z,87.04
2018-01-27T02:36:14.990Z,86.67
2018-01-27T02:38:41.594Z,86.65
2018-01-27T02:41:08.227Z,86.63
2018-01-27T02:43:34.940Z,86.77
2018-01-27T02:46:01.507Z,86.63
2018-01-27T02:48:28.113Z,87.16
2018-01-27T02:50:54.710Z,87.09
2018-01-27T02:53:21.398Z,87.31
2018-01-27T02:55:48.751Z,86.81
2018-01-27T02:58:16.067Z,86.63
2018-01-27T03:00:42.669Z,86.90
2018-01-27T03:03:09.266Z,86.87
2018-01-27T03:05:35.986Z,86.71
2018-01-27T03:08:02.574Z,86.28
2018-01-27T03:10:29.178Z,86.49
2018-01-27T03:12:55.753Z,86.60
2018-01-27T03:15:22.357Z,86.80
2018-01-27T03:17:48.985Z,86.99
2018-01-27T03:20:15.597Z,86.55
2018-01-27T03:22:42.193Z,86.69
2018-01-27T03:25:09.749Z,86.76
2018-01-27T03:27:36.367Z,86.80
2018-01-27T03:30:02.973Z,86.80
2018-01-27T03:32:29.541Z,86.80
2018-01-27T03:34:56.123Z,86.63
2018-01-27T03:37:22.689Z,86.69
2018-01-27T03:39:49.354Z,86.59
2018-01-27T03:42:15.959Z,86.69
2018-01-27T03:44:42.610Z,86.44
2018-01-27T03:47:09.236Z,86.32
2018-01-27T03:49:35.866Z,86.46
2018-01-27T03:52:02.451Z,86.51
2018-01-27T03:54:29.074Z,86.59
2018-01-27T03:56:55.708Z,86.41
2018-01-27T03:59:23.100Z,86.11
2018-01-27T04:01:49.697Z,86.44
2018-01-27T04:04:16.307Z,86.48
2018-01-27T04:06:42.951Z,86.42
2018-01-27T04:09:09.550Z,86.31
2018-01-27T04:11:36.142Z,86.33
2018-01-27T04:14:02.794Z,86.52
2018-01-27T04:16:29.325Z,86.65
2018-01-27T04:18:55.963Z,86.83
2018-01-27T04:21:22.641Z,86.91
2018-01-27T04:23:49.225Z,86.79
2018-01-27T04:26:15.852Z,86.90
2018-01-27T04:28:42.414Z,87.11
2018-01-27T04:31:09.034Z,87.44
2018-01-27T04:33:35.669Z,87.44
2018-01-27T04:36:02.265Z,87.40
2018-01-27T04:38:28.923Z,87.39
2018-01-27T04:40:55.491Z,87.72
2018-01-27T04:43:22.805Z,87.93
2018-01-27T04:45:49.454Z,88.02
2018-01-27T04:48:16.035Z,88.12
2018-01-27T04:50:43.365Z,88.01
2018-01-27T04:53:09.969Z,87.91
2018-01-27T04:55:36.583Z,87.58
2018-01-27T04:58:03.208Z,87.78
2018-01-27T05:00:29.754Z,87.73
2018-01-27T05:02:56.380Z,87.53
2018-01-27T05:05:23.072Z,87.55
2018-01-27T05:07:49.745Z,88.01
2018-01-27T05:10:17.071Z,88.05
2018-01-27T05:12:43.733Z,88.20
2018-01-27T05:15:11.053Z,88.05
2018-01-27T05:17:37.638Z,87.80
2018-01-27T05:20:05.002Z,87.71
2018-01-27T05:22:31.621Z,87.83
2018-01-27T05:24:58.338Z,87.85
2018-01-27T05:27:24.972Z,87.92
2018-01-27T05:29:51.550Z,87.95
2018-01-27T05:32:18.120Z,87.81
2018-01-27T05:34:44.858Z,87.71
2018-01-27T05:37:11.482Z,87.89
2018-01-27T05:39:38.059Z,87.90
2018-01-27T05:42:04.651Z,87.79
2018-01-27T05:44:31.245Z,87.78
2018-01-27T05:46:58.563Z,88.07
2018-01-27T05:49:25.142Z,87.97
2018-01-27T05:51:52.492Z,88.03
2018-01-27T05:54:19.802Z,87.91
2018-01-27T05:56:46.419Z,87.75
2018-01-27T05:59:13.062Z,87.88
2018-01-27T06:01:39.701Z,87.93
2018-01-27T06:04:06.263Z,87.74
2018-01-27T06:06:32.834Z,87.81
2018-01-27T06:09:00.198Z,87.81
2018-01-27T06:11:27.590Z,87.76
2018-01-27T06:13:54.194Z,87.68
2018-01-27T06:16:21.586Z,87.68
2018-01-27T06:18:48.210Z,87.57
2018-01-27T06:21:14.859Z,87.53
2018-01-27T06:23:41.586Z,87.48
2018-01-27T06:26:08.192Z,87.49
2018-01-27T06:28:34.782Z,87.51
2018-01-27T06:31:01.414Z,87.76
2018-01-27T06:33:27.986Z,87.73
2018-01-27T06:35:55.327Z,87.61
2018-01-27T06:38:21.894Z,87.59
2018-01-27T06:40:49.229Z,87.56
2018-01-27T06:43:16.574Z,87.34
2018-01-27T06:45:43.206Z,87.54
2018-01-27T06:48:09.822Z,87.43
2018-01-27T06:50:36.409Z,87.20
2018-01-27T06:53:03.759Z,87.37
2018-01-27T06:55:30.354Z,87.56
2018-01-27T06:57:56.962Z,87.54
2018-01-27T07:00:23.550Z,87.44
2018-01-27T07:02:50.146Z,87.34
2018-01-27T07:05:16.762Z,87.61
2018-01-27T07:07:44.196Z,87.61
2018-01-27T07:10:10.895Z,87.57
2018-01-27T07:12:37.495Z,87.42
2018-01-27T07:15:04.189Z,87.43
2018-01-27T07:17:30.889Z,87.52
2018-01-27T07:19:57.475Z,87.72
2018-01-27T07:22:24.075Z,87.08
2018-01-27T07:24:50.659Z,87.33
2018-01-27T07:27:18.062Z,87.27
2018-01-27T07:29:44.626Z,87.58
2018-01-27T07:32:11.224Z,87.43
2018-01-27T07:34:37.854Z,87.77
2018-01-27T07:37:04.506Z,87.20
2018-01-27T07:39:31.079Z,87.49
2018-01-27T07:41:57.674Z,87.23
2018-01-27T07:44:24.254Z,87.23
2018-01-27T07:46:50.975Z,87.19
2018-01-27T07:49:17.558Z,87.24
2018-01-27T07:51:44.228Z,86.91
2018-01-27T07:54:10.827Z,87.26
2018-01-27T07:56:38.194Z,87.45
2018-01-27T07:59:04.762Z,87.60
2018-01-27T08:01:31.402Z,87.66
2018-01-27T08:03:58.006Z,87.80
2018-01-27T08:06:24.739Z,87.42
2018-01-27T08:08:52.102Z,87.40
2018-01-27T08:11:18.722Z,87.57
2018-01-27T08:13:46.249Z,87.27
2018-01-27T08:16:12.955Z,87.16
2018-01-27T08:18:39.583Z,86.93
2018-01-27T08:21:06.182Z,86.90
2018-01-27T08:23:32.872Z,86.80
2018-01-27T08:25:59.493Z,86.77
2018-01-27T08:28:26.193Z,86.60
2018-01-27T08:30:52.826Z,86.70
2018-01-27T08:33:19.428Z,86.27
2018-01-27T08:35:46.016Z,86.42
2018-01-27T08:38:12.675Z,86.27
2018-01-27T08:40:39.274Z,86.43
2018-01-27T08:43:05.944Z,86.63
2018-01-27T08:45:33.253Z,86.53
2018-01-27T08:47:59.830Z,86.33
2018-01-27T08:50:27.179Z,86.17
2018-01-27T08:52:54.499Z,85.94
2018-01-27T08:55:21.168Z,85.79
2018-01-27T08:57:47.795Z,85.90
2018-01-27T09:00:14.398Z,85.92
2018-01-27T09:02:41.127Z,85.67
2018-01-27T09:05:07.722Z,85.73
2018-01-27T09:07:34.450Z,84.91
2018-01-27T09:10:01.011Z,85.07
2018-01-27T09:12:27.625Z,84.57
2018-01-27T09:14:54.934Z,84.98
2018-01-27T09:17:21.562Z,85.38
2018-01-27T09:19:48.173Z,85.10
2018-01-27T09:22:14.757Z,84.94
2018-01-27T09:24:41.351Z,85.04
2018-01-27T09:27:07.999Z,85.12
2018-01-27T09:29:34.648Z,85.16
2018-01-27T09:32:01.246Z,84.42
2018-01-27T09:34:27.882Z,84.42
2018-01-27T09:36:55.222Z,84.21
2018-01-27T09:39:21.906Z,84.13
2018-01-27T09:41:49.284Z,83.84
2018-01-27T09:44:15.899Z,82.70
2018-01-27T09:46:42.976Z,81.88
2018-01-27T09:49:09.605Z,81.60
2018-01-27T09:51:36.959Z,81.32
2018-01-27T09:54:03.614Z,80.54
2018-01-27T09:56:30.206Z,80.14
2018-01-27T09:58:57.830Z,79.11
2018-01-27T10:01:25.166Z,78.91
2018-01-27T10:03:51.819Z,77.07
2018-01-27T10:06:18.427Z,76.86
2018-01-27T10:08:45.117Z,76.62
2018-01-27T10:11:11.700Z,77.42
2018-01-27T10:13:38.337Z,76.44
2018-01-27T10:16:04.917Z,75.31
2018-01-27T10:18:31.516Z,74.88
2018-01-27T10:20:58.917Z,73.82
2018-01-27T10:23:26.287Z,73.51
2018-01-27T10:25:52.899Z,73.90
2018-01-27T10:28:20.297Z,73.45
2018-01-27T10:30:47.732Z,73.60
2018-01-27T10:33:14.351Z,74.61
2018-01-27T10:35:40.929Z,75.67
2018-01-27T10:38:07.630Z,75.94
2018-01-27T10:40:35.239Z,77.32
2018-01-27T10:43:01.852Z,76.50
2018-01-27T10:45:28.466Z,76.87
2018-01-27T10:47:55.850Z,77.13
2018-01-27T10:50:22.459Z,77.26
2018-01-27T10:52:49.908Z,77.18
2018-01-27T10:55:17.309Z,77.62
2018-01-27T10:57:43.898Z,78.33
2018-01-27T11:00:10.917Z,78.21
2018-01-27T11:02:38.280Z,78.60
2018-01-27T11:05:05.306Z,78.55
2018-01-27T11:07:31.906Z,78.87
2018-01-27T11:09:58.514Z,78.92
2018-01-27T11:12:25.110Z,79.18
2018-01-27T11:14:51.711Z,78.99
2018-01-27T11:17:18.290Z,78.92
2018-01-27T11:19:44.985Z,79.08
2018-01-27T11:22:17.491Z,79.01
2018-01-27T11:24:44.227Z,78.96
2018-01-27T11:27:10.854Z,79.13
2018-01-27T11:29:37.488Z,79.05
2018-01-27T11:32:04.121Z,78.42
2018-01-27T11:34:30.750Z,78.38
2018-01-27T11:36:58.050Z,78.84
2018-01-27T11:39:24.662Z,78.75
2018-01-27T11:41:51.291Z,78.89
2018-01-27T11:44:17.973Z,78.94
2018-01-27T11:46:44.623Z,79.41
2018-01-27T11:49:11.291Z,79.50
2018-01-27T11:51:38.598Z,79.96
2018-01-27T11:54:05.979Z,79.54
2018-01-27T11:56:32.929Z,78.83
2018-01-27T11:59:00.537Z,78.38
2018-01-27T12:01:27.124Z,78.22
2018-01-27T12:03:54.460Z,78.42
2018-01-27T12:06:21.126Z,78.29
2018-01-27T12:08:48.451Z,78.40
2018-01-27T12:11:15.106Z,78.38
2018-01-27T12:13:41.812Z,77.95
2018-01-27T12:16:08.412Z,77.26
2018-01-27T12:18:35.012Z,76.90
2018-01-27T12:21:01.669Z,77.18
2018-01-27T12:23:28.335Z,77.31
2018-01-27T12:25:54.902Z,75.53
2018-01-27T12:28:21.556Z,75.02
2018-01-27T12:30:48.170Z,75.14
2018-01-27T12:33:14.786Z,75.82
2018-01-27T12:35:41.425Z,75.98
2018-01-27T12:38:08.046Z,75.02
2018-01-27T12:40:34.706Z,75.65
2018-01-27T12:43:01.347Z,75.85
2018-01-27T12:45:27.967Z,74.37
2018-01-27T12:47:54.668Z,75.08
2018-01-27T12:50:21.326Z,74.73
2018-01-27T12:52:48.008Z,75.72
2018-01-27T12:55:14.619Z,75.31
2018-01-27T12:57:41.295Z,75.60
2018-01-27T13:00:07.934Z,75.40
2018-01-27T13:02:35.300Z,75.01
2018-01-27T13:05:02.739Z,75.64
2018-01-27T13:07:29.356Z,75.85
2018-01-27T13:09:56.097Z,75.96
2018-01-27T13:12:22.708Z,75.53
2018-01-27T13:14:49.379Z,75.85
2018-01-27T13:17:15.990Z,75.80
2018-01-27T13:19:42.614Z,76.39
2018-01-27T13:22:09.277Z,76.94
2018-01-27T13:24:35.927Z,76.64
2018-01-27T13:27:02.535Z,76.72
2018-01-27T13:29:29.132Z,76.93
2018-01-27T13:31:55.749Z,76.89
2018-01-27T13:34:22.397Z,76.26
2018-01-27T13:36:49.006Z,76.39
2018-01-27T13:39:15.609Z,76.72
2018-01-27T13:41:42.959Z,76.39
2018-01-27T13:44:10.363Z,76.29
2018-01-27T13:46:36.961Z,75.60
2018-01-27T13:49:04.473Z,75.94
2018-01-27T13:51:31.055Z,75.71
2018-01-27T13:53:58.426Z,76.06
2018-01-27T13:56:25.055Z,76.52
2018-01-27T13:58:51.719Z,76.52
2018-01-27T14:01:18.309Z,76.76
2018-01-27T14:03:45.709Z,76.50
2018-01-27T14:06:12.558Z,77.16
2018-01-27T14:08:39.158Z,77.38
2018-01-27T14:11:05.767Z,78.06
2018-01-27T14:13:32.452Z,78.15
2018-01-27T14:15:59.122Z,78.77
2018-01-27T14:18:25.707Z,78.84
2018-01-27T14:20:52.297Z,79.16
2018-01-27T14:23:18.870Z,79.10
2018-01-27T14:25:46.327Z,79.05
2018-01-27T14:28:12.960Z,79.05
2018-01-27T14:30:40.338Z,78.89
2018-01-27T14:33:07.025Z,78.90
2018-01-27T14:35:33.612Z,79.00
2018-01-27T14:38:00.215Z,78.88
2018-01-27T14:40:26.849Z,78.67
2018-01-27T14:42:53.455Z,78.71
2018-01-27T14:45:20.036Z,79.17
2018-01-27T14:47:47.375Z,79.09
2018-01-27T14:50:14.010Z,78.79
2018-01-27T14:52:40.750Z,78.38
2018-01-27T14:55:07.367Z,78.18
2018-01-27T14:57:34.000Z,78.09
2018-01-27T15:00:00.712Z,78.23
2018-01-27T15:02:27.375Z,78.48
2018-01-27T15:04:54.003Z,78.50
2018-01-27T15:07:20.659Z,78.29
2018-01-27T15:09:47.283Z,78.17
2018-01-27T15:12:13.894Z,77.27
2018-01-27T15:14:40.497Z,77.74
2018-01-27T15:17:07.077Z,77.92
2018-01-27T15:19:33.685Z,77.62
2018-01-27T15:22:00.276Z,77.37
2018-01-27T15:24:26.838Z,77.02
2018-01-27T15:26:53.498Z,77.53
2018-01-27T15:29:20.892Z,78.14
2018-01-27T15:31:47.470Z,78.25
2018-01-27T15:34:14.142Z,78.62
2018-01-27T15:36:40.743Z,78.96
2018-01-27T15:39:07.457Z,79.24
2018-01-27T15:41:34.066Z,79.15
2018-01-27T15:44:00.818Z,79.15
2018-01-27T15:46:27.485Z,78.88
2018-01-27T15:48:54.843Z,79.01
2018-01-27T15:51:21.418Z,78.95
2018-01-27T15:53:48.754Z,79.02
2018-01-27T15:56:16.109Z,79.10
2018-01-27T15:58:43.500Z,79.20
2018-01-27T16:01:10.160Z,79.30
2018-01-27T16:03:36.994Z,79.22
2018-01-27T16:06:03.623Z,79.65
2018-01-27T16:08:30.999Z,80.03
2018-01-27T16:10:57.608Z,79.09
2018-01-27T16:13:24.171Z,80.00
2018-01-27T16:15:50.798Z,80.19
2018-01-27T16:18:17.543Z,80.58
2018-01-27T16:20:44.269Z,80.56
2018-01-27T16:23:10.887Z,80.85
2018-01-27T16:25:37.735Z,80.87
2018-01-27T16:28:04.390Z,80.87
2018-01-27T16:30:30.955Z,80.93
2018-01-27T16:32:57.596Z,80.81
2018-01-27T16:35:24.237Z,80.91
2018-01-27T16:37:50.877Z,80.70
2018-01-27T16:40:17.491Z,80.49
2018-01-27T16:42:45.063Z,80.35
2018-01-27T16:45:11.736Z,80.57
2018-01-27T16:47:38.322Z,80.50
2018-01-27T16:50:05.030Z,80.44
2018-01-27T16:52:31.598Z,80.59
2018-01-27T16:54:58.186Z,80.67
2018-01-27T16:57:24.827Z,80.76
2018-01-27T16:59:51.466Z,80.77
2018-01-27T17:02:18.881Z,80.72
2018-01-27T17:04:46.282Z,80.62
2018-01-27T17:07:12.897Z,80.70
2018-01-27T17:09:40.210Z,80.58
2018-01-27T17:12:06.870Z,80.58
2018-01-27T17:14:33.462Z,81.06
2018-01-27T17:17:00.151Z,80.57
2018-01-27T17:19:26.742Z,80.81
2018-01-27T17:21:53.316Z,81.30
2018-01-27T17:24:19.961Z,80.81
2018-01-27T17:26:46.553Z,80.50
2018-01-27T17:29:13.122Z,80.44
2018-01-27T17:31:39.820Z,80.75
2018-01-27T17:34:06.442Z,81.17
2018-01-27T17:36:33.090Z,80.83
2018-01-27T17:38:59.695Z,81.24
2018-01-27T17:41:26.371Z,81.01
2018-01-27T17:43:52.969Z,80.55
2018-01-27T17:46:19.631Z,80.57
2018-01-27T17:48:46.299Z,80.81
2018-01-27T17:51:12.905Z,81.49
2018-01-27T17:53:39.547Z,81.71
2018-01-27T17:56:06.174Z,81.83
2018-01-27T17:58:32.840Z,81.75
2018-01-27T18:00:59.489Z,81.44
2018-01-27T18:03:26.062Z,80.90
2018-01-27T18:05:53.405Z,81.12
2018-01-27T18:08:20.191Z,80.91
2018-01-27T18:10:46.822Z,80.75
2018-01-27T18:13:13.460Z,81.05
2018-01-27T18:15:40.133Z,80.77
2018-01-27T18:18:06.757Z,80.75
2018-01-27T18:20:33.370Z,80.46
2018-01-27T18:23:00.712Z,80.59
2018-01-27T18:25:27.394Z,79.99
2018-01-27T18:27:54.037Z,80.38
2018-01-27T18:30:20.802Z,80.02
2018-01-27T18:32:47.510Z,80.25
2018-01-27T18:35:14.127Z,80.58
2018-01-27T18:37:40.720Z,80.64
2018-01-27T18:40:07.401Z,80.75
2018-01-27T18:42:34.070Z,80.77
2018-01-27T18:45:01.395Z,80.67
2018-01-27T18:47:28.262Z,80.56
2018-01-27T18:49:54.972Z,80.53
2018-01-27T18:52:21.561Z,80.57
2018-01-27T18:54:48.189Z,80.50
2018-01-27T18:57:14.792Z,80.45
2018-01-27T18:59:41.482Z,80.49
2018-01-27T19:02:08.080Z,80.71
2018-01-27T19:04:34.686Z,80.80
2018-01-27T19:07:02.110Z,80.83
2018-01-27T19:09:28.775Z,81.11
2018-01-27T19:11:56.091Z,80.94
2018-01-27T19:14:22.721Z,80.74
2018-01-27T19:16:49.328Z,80.69
2018-01-27T19:19:15.961Z,80.54
2018-01-27T19:21:42.656Z,80.54
2018-01-27T19:24:09.301Z,80.60
2018-01-27T19:26:36.014Z,80.17
2018-01-27T19:29:03.353Z,80.50
2018-01-27T19:31:29.993Z,80.08
2018-01-27T19:33:56.658Z,80.29
2018-01-27T19:36:23.257Z,80.19
2018-01-27T19:38:49.967Z,80.29
2018-01-27T19:41:16.614Z,80.08
2018-01-27T19:43:43.265Z,80.40
2018-01-27T19:46:09.907Z,80.49
2018-01-27T19:48:36.581Z,80.31
2018-01-27T19:51:03.196Z,79.88
2018-01-27T19:53:29.844Z,80.40
2018-01-27T19:55:56.516Z,80.80
2018-01-27T19:58:23.139Z,80.83
2018-01-27T20:00:49.812Z,80.69
2018-01-27T20:03:16.505Z,80.46
2018-01-27T20:05:44.114Z,80.66
2018-01-27T20:08:10.727Z,80.64
2018-01-27T20:10:38.153Z,80.72
2018-01-27T20:13:04.788Z,80.64
2018-01-27T20:15:31.632Z,80.82
2018-01-27T20:17:58.989Z,80.91
2018-01-27T20:20:25.629Z,80.69
2018-01-27T20:22:52.354Z,80.47
2018-01-27T20:25:19.067Z,80.46
2018-01-27T20:27:45.780Z,80.45
2018-01-27T20:30:13.264Z,80.47
2018-01-27T20:32:39.843Z,80.37
2018-01-27T20:35:06.452Z,80.47
2018-01-27T20:37:33.188Z,80.21
2018-01-27T20:39:59.981Z,80.29
2018-01-27T20:42:26.592Z,80.49
2018-01-27T20:44:53.224Z,80.82
2018-01-27T20:47:19.923Z,80.65
2018-01-27T20:49:46.637Z,80.63
2018-01-27T20:52:13.299Z,80.75
2018-01-27T20:54:39.959Z,80.82
2018-01-27T20:57:06.651Z,80.86
2018-01-27T20:59:33.912Z,81.02
2018-01-27T21:02:01.357Z,80.93
2018-01-27T21:04:28.791Z,81.05
2018-01-27T21:06:55.516Z,81.07
2018-01-27T21:09:23.075Z,80.96
2018-01-27T21:11:49.760Z,80.84
2018-01-27T21:14:17.099Z,80.85
2018-01-27T21:16:43.698Z,81.22
2018-01-27T21:19:10.350Z,81.09
2018-01-27T21:21:37.022Z,80.63
2018-01-27T21:24:03.754Z,81.00
2018-01-27T21:26:31.176Z,81.35
2018-01-27T21:28:57.836Z,81.19
2018-01-27T21:31:24.570Z,81.40
2018-01-27T21:33:51.268Z,81.21
2018-01-27T21:36:17.927Z,81.30
2018-01-27T21:38:44.842Z,81.23
2018-01-27T21:41:11.462Z,81.32
2018-01-27T21:43:38.094Z,81.56
2018-01-27T21:46:05.578Z,81.68
2018-01-27T21:48:32.435Z,81.61
2018-01-27T21:50:59.015Z,81.39
2018-01-27T21:53:25.627Z,81.38
2018-01-27T21:55:52.247Z,81.26
2018-01-27T21:58:19.827Z,81.52
2018-01-27T22:00:46.512Z,81.63
2018-01-27T22:03:13.169Z,81.78
2018-01-27T22:05:39.783Z,81.60
2018-01-27T22:08:06.466Z,81.50
2018-01-27T22:10:33.352Z,82.05
2018-01-27T22:12:59.970Z,82.37
2018-01-27T22:15:26.582Z,82.31
2018-01-27T22:17:53.202Z,82.37
2018-01-27T22:20:19.807Z,82.59
2018-01-27T22:22:46.487Z,82.59
2018-01-27T22:25:13.102Z,82.67
2018-01-27T22:27:39.722Z,82.58
2018-01-27T22:30:07.134Z,82.94
2018-01-27T22:32:33.767Z,82.88
2018-01-27T22:35:00.374Z,83.01
2018-01-27T22:37:26.942Z,82.99
2018-01-27T22:39:53.557Z,82.99
2018-01-27T22:42:20.174Z,83.00
2018-01-27T22:44:46.807Z,83.04
2018-01-27T22:47:14.118Z,83.00
2018-01-27T22:49:40.750Z,82.67
2018-01-27T22:52:07.375Z,82.87
2018-01-27T22:54:33.983Z,82.64
2018-01-27T22:57:00.582Z,82.41
2018-01-27T22:59:27.190Z,82.59
2018-01-27T23:01:53.879Z,83.00
2018-01-27T23:04:21.195Z,83.24
2018-01-27T23:06:47.887Z,82.96
2018-01-27T23:09:14.555Z,82.63
2018-01-27T23:11:41.113Z,82.41
2018-01-27T23:14:08.819Z,82.53
2018-01-27T23:16:35.422Z,82.64
2018-01-27T23:19:02.232Z,82.68
2018-01-27T23:21:28.882Z,82.49
2018-01-27T23:23:55.535Z,82.60
2018-01-27T23:26:22.163Z,82.67
2018-01-27T23:28:49.106Z,82.39
2018-01-27T23:31:15.710Z,82.32
2018-01-27T23:33:42.332Z,82.44
2018-01-27T23:36:08.952Z,82.37
2018-01-27T23:38:35.594Z,82.04
2018-01-27T23:41:02.947Z,81.92
2018-01-27T23:43:30.295Z,81.55
2018-01-27T23:45:57.723Z,81.34
2018-01-27T23:48:24.354Z,81.67
2018-01-27T23:50:50.938Z,81.74
2018-01-27T23:53:17.565Z,81.53
2018-01-27T23:55:44.942Z,81.89
2018-01-27T23:58:12.308Z,82.04
